sensor_id;sensor_type;location;lat;lon;timestamp;P1;durP1;ratioP1;P2;durP2;ratioP2
55720;SDS011;41626;53.098;6.168;2022-08-19T00:01:18;6.97;;;6.32;;
55720;SDS011;41626;53.098;6.168;2022-08-19T00:03:44;9.20;;;7.78;;
55720;SDS011;41626;53.098;6.168;2022-08-19T00:06:10;9.10;;;7.22;;
55720;SDS011;41626;53.098;6.168;2022-08-19T00:08:36;17.92;;;8.13;;
55720;SDS011;41626;53.098;6.168;2022-08-19T00:11:02;9.07;;;6.65;;
55720;SDS011;41626;53.098;6.168;2022-08-19T00:13:27;8.35;;;6.72;;
55720;SDS011;41626;53.098;6.168;2022-08-19T00:15:54;9.25;;;8.07;;
55720;SDS011;41626;53.098;6.168;2022-08-19T00:18:20;8.30;;;7.05;;
55720;SDS011;41626;53.098;6.168;2022-08-19T00:20:46;9.18;;;7.00;;
55720;SDS011;41626;53.098;6.168;2022-08-19T00:23:12;7.43;;;6.72;;
55720;SDS011;41626;53.098;6.168;2022-08-19T00:25:38;7.97;;;6.78;;
55720;SDS011;41626;53.098;6.168;2022-08-19T00:28:04;8.18;;;6.10;;
55720;SDS011;41626;53.098;6.168;2022-08-19T00:30:29;8.27;;;7.03;;
55720;SDS011;41626;53.098;6.168;2022-08-19T00:32:56;8.88;;;7.03;;
55720;SDS011;41626;53.098;6.168;2022-08-19T00:35:22;9.85;;;7.45;;
55720;SDS011;41626;53.098;6.168;2022-08-19T00:37:49;11.93;;;8.48;;
55720;SDS011;41626;53.098;6.168;2022-08-19T00:40:16;11.77;;;6.68;;
55720;SDS011;41626;53.098;6.168;2022-08-19T00:42:44;10.95;;;6.72;;
55720;SDS011;41626;53.098;6.168;2022-08-19T00:45:12;9.43;;;7.07;;
55720;SDS011;41626;53.098;6.168;2022-08-19T00:47:41;8.25;;;6.43;;
55720;SDS011;41626;53.098;6.168;2022-08-19T00:50:07;8.57;;;7.45;;
55720;SDS011;41626;53.098;6.168;2022-08-19T00:52:35;8.68;;;7.55;;
55720;SDS011;41626;53.098;6.168;2022-08-19T00:55:05;7.73;;;6.97;;
55720;SDS011;41626;53.098;6.168;2022-08-19T00:57:36;8.75;;;7.72;;
55720;SDS011;41626;53.098;6.168;2022-08-19T01:02:34;8.57;;;7.75;;
55720;SDS011;41626;53.098;6.168;2022-08-19T01:05:01;8.95;;;7.90;;
55720;SDS011;41626;53.098;6.168;2022-08-19T01:07:29;11.67;;;9.37;;
55720;SDS011;41626;53.098;6.168;2022-08-19T01:09:55;9.88;;;8.35;;
55720;SDS011;41626;53.098;6.168;2022-08-19T01:12:21;8.80;;;7.97;;
55720;SDS011;41626;53.098;6.168;2022-08-19T01:14:47;9.13;;;7.45;;
55720;SDS011;41626;53.098;6.168;2022-08-19T01:17:13;10.40;;;8.13;;
55720;SDS011;41626;53.098;6.168;2022-08-19T01:19:41;10.32;;;7.88;;
55720;SDS011;41626;53.098;6.168;2022-08-19T01:24:40;10.52;;;8.75;;
55720;SDS011;41626;53.098;6.168;2022-08-19T01:27:06;8.88;;;8.02;;
55720;SDS011;41626;53.098;6.168;2022-08-19T01:29:33;13.38;;;9.13;;
55720;SDS011;41626;53.098;6.168;2022-08-19T01:32:00;9.80;;;8.90;;
55720;SDS011;41626;53.098;6.168;2022-08-19T01:34:26;14.25;;;9.65;;
55720;SDS011;41626;53.098;6.168;2022-08-19T01:36:52;13.07;;;8.77;;
55720;SDS011;41626;53.098;6.168;2022-08-19T01:39:19;11.90;;;8.57;;
55720;SDS011;41626;53.098;6.168;2022-08-19T01:41:48;21.38;;;9.98;;
55720;SDS011;41626;53.098;6.168;2022-08-19T01:44:14;10.10;;;8.85;;
55720;SDS011;41626;53.098;6.168;2022-08-19T01:46:41;12.88;;;8.75;;
55720;SDS011;41626;53.098;6.168;2022-08-19T01:49:08;15.45;;;9.38;;
55720;SDS011;41626;53.098;6.168;2022-08-19T01:51:35;10.82;;;8.75;;
55720;SDS011;41626;53.098;6.168;2022-08-19T01:54:01;12.05;;;9.32;;
55720;SDS011;41626;53.098;6.168;2022-08-19T01:56:27;8.93;;;8.00;;
55720;SDS011;41626;53.098;6.168;2022-08-19T01:59:04;12.30;;;9.90;;
55720;SDS011;41626;53.098;6.168;2022-08-19T02:01:35;10.57;;;8.93;;
55720;SDS011;41626;53.098;6.168;2022-08-19T02:04:00;9.98;;;8.98;;
55720;SDS011;41626;53.098;6.168;2022-08-19T02:06:27;11.15;;;8.93;;
55720;SDS011;41626;53.098;6.168;2022-08-19T02:08:53;9.15;;;8.30;;
55720;SDS011;41626;53.098;6.168;2022-08-19T02:11:21;10.18;;;8.52;;
55720;SDS011;41626;53.098;6.168;2022-08-19T02:13:50;10.75;;;8.48;;
55720;SDS011;41626;53.098;6.168;2022-08-19T02:16:16;11.68;;;8.98;;
55720;SDS011;41626;53.098;6.168;2022-08-19T02:18:43;11.80;;;8.50;;
55720;SDS011;41626;53.098;6.168;2022-08-19T02:21:09;13.90;;;8.88;;
55720;SDS011;41626;53.098;6.168;2022-08-19T02:23:35;10.60;;;9.25;;
55720;SDS011;41626;53.098;6.168;2022-08-19T02:26:01;13.57;;;9.77;;
55720;SDS011;41626;53.098;6.168;2022-08-19T02:28:27;9.88;;;8.40;;
55720;SDS011;41626;53.098;6.168;2022-08-19T02:30:53;11.70;;;10.40;;
55720;SDS011;41626;53.098;6.168;2022-08-19T02:33:18;10.77;;;9.68;;
55720;SDS011;41626;53.098;6.168;2022-08-19T02:35:45;11.70;;;10.20;;
55720;SDS011;41626;53.098;6.168;2022-08-19T02:38:11;11.45;;;9.20;;
55720;SDS011;41626;53.098;6.168;2022-08-19T02:41:09;10.55;;;8.32;;
55720;SDS011;41626;53.098;6.168;2022-08-19T02:43:37;12.15;;;9.45;;
55720;SDS011;41626;53.098;6.168;2022-08-19T02:46:25;13.48;;;9.45;;
55720;SDS011;41626;53.098;6.168;2022-08-19T02:48:52;28.13;;;11.18;;
55720;SDS011;41626;53.098;6.168;2022-08-19T02:51:42;12.25;;;10.65;;
55720;SDS011;41626;53.098;6.168;2022-08-19T02:54:07;15.48;;;10.75;;
55720;SDS011;41626;53.098;6.168;2022-08-19T02:56:34;11.27;;;9.35;;
55720;SDS011;41626;53.098;6.168;2022-08-19T02:59:01;12.95;;;10.95;;
55720;SDS011;41626;53.098;6.168;2022-08-19T03:01:31;18.10;;;11.70;;
55720;SDS011;41626;53.098;6.168;2022-08-19T03:03:58;13.45;;;10.48;;
55720;SDS011;41626;53.098;6.168;2022-08-19T03:06:25;14.85;;;11.43;;
55720;SDS011;41626;53.098;6.168;2022-08-19T03:08:51;15.00;;;11.05;;
55720;SDS011;41626;53.098;6.168;2022-08-19T03:11:24;15.32;;;10.93;;
55720;SDS011;41626;53.098;6.168;2022-08-19T03:13:51;15.32;;;11.77;;
55720;SDS011;41626;53.098;6.168;2022-08-19T03:16:18;12.02;;;10.73;;
55720;SDS011;41626;53.098;6.168;2022-08-19T03:18:48;12.35;;;9.98;;
55720;SDS011;41626;53.098;6.168;2022-08-19T03:21:19;13.88;;;9.23;;
55720;SDS011;41626;53.098;6.168;2022-08-19T03:23:46;16.10;;;12.00;;
55720;SDS011;41626;53.098;6.168;2022-08-19T03:26:12;16.92;;;11.48;;
55720;SDS011;41626;53.098;6.168;2022-08-19T03:28:40;11.48;;;10.27;;
55720;SDS011;41626;53.098;6.168;2022-08-19T03:31:09;14.18;;;10.23;;
55720;SDS011;41626;53.098;6.168;2022-08-19T03:33:37;13.00;;;10.10;;
55720;SDS011;41626;53.098;6.168;2022-08-19T03:36:14;14.68;;;11.02;;
55720;SDS011;41626;53.098;6.168;2022-08-19T03:38:51;10.57;;;9.48;;
55720;SDS011;41626;53.098;6.168;2022-08-19T03:41:20;18.92;;;9.65;;
55720;SDS011;41626;53.098;6.168;2022-08-19T03:43:48;12.35;;;10.40;;
55720;SDS011;41626;53.098;6.168;2022-08-19T03:46:18;13.52;;;10.80;;
55720;SDS011;41626;53.098;6.168;2022-08-19T03:48:47;11.57;;;10.27;;
55720;SDS011;41626;53.098;6.168;2022-08-19T03:51:17;10.88;;;9.75;;
55720;SDS011;41626;53.098;6.168;2022-08-19T03:53:46;14.10;;;11.68;;
55720;SDS011;41626;53.098;6.168;2022-08-19T03:56:12;14.85;;;11.07;;
55720;SDS011;41626;53.098;6.168;2022-08-19T03:58:38;12.48;;;9.63;;
55720;SDS011;41626;53.098;6.168;2022-08-19T04:01:11;13.02;;;10.88;;
55720;SDS011;41626;53.098;6.168;2022-08-19T04:03:39;13.48;;;10.82;;
55720;SDS011;41626;53.098;6.168;2022-08-19T04:06:20;12.18;;;10.68;;
55720;SDS011;41626;53.098;6.168;2022-08-19T04:08:47;10.30;;;9.30;;
55720;SDS011;41626;53.098;6.168;2022-08-19T04:11:16;11.90;;;10.70;;
55720;SDS011;41626;53.098;6.168;2022-08-19T04:13:46;14.65;;;10.70;;
55720;SDS011;41626;53.098;6.168;2022-08-19T04:16:12;12.05;;;10.15;;
55720;SDS011;41626;53.098;6.168;2022-08-19T04:18:39;12.75;;;10.05;;
55720;SDS011;41626;53.098;6.168;2022-08-19T04:21:06;15.05;;;11.77;;
55720;SDS011;41626;53.098;6.168;2022-08-19T04:23:33;12.00;;;10.20;;
55720;SDS011;41626;53.098;6.168;2022-08-19T04:26:00;16.20;;;11.52;;
55720;SDS011;41626;53.098;6.168;2022-08-19T04:28:27;12.32;;;10.43;;
55720;SDS011;41626;53.098;6.168;2022-08-19T04:30:54;15.40;;;12.18;;
55720;SDS011;41626;53.098;6.168;2022-08-19T04:33:21;17.15;;;12.05;;
55720;SDS011;41626;53.098;6.168;2022-08-19T04:35:49;16.38;;;12.13;;
55720;SDS011;41626;53.098;6.168;2022-08-19T04:38:17;14.77;;;10.88;;
55720;SDS011;41626;53.098;6.168;2022-08-19T04:40:49;14.95;;;12.52;;
55720;SDS011;41626;53.098;6.168;2022-08-19T04:43:35;15.10;;;10.87;;
55720;SDS011;41626;53.098;6.168;2022-08-19T04:46:09;15.40;;;11.55;;
55720;SDS011;41626;53.098;6.168;2022-08-19T04:48:37;15.25;;;11.70;;
55720;SDS011;41626;53.098;6.168;2022-08-19T04:51:09;14.25;;;10.73;;
55720;SDS011;41626;53.098;6.168;2022-08-19T04:53:37;13.85;;;10.07;;
55720;SDS011;41626;53.098;6.168;2022-08-19T04:56:05;11.23;;;9.98;;
55720;SDS011;41626;53.098;6.168;2022-08-19T04:58:33;16.95;;;11.20;;
55720;SDS011;41626;53.098;6.168;2022-08-19T05:01:00;16.27;;;12.10;;
55720;SDS011;41626;53.098;6.168;2022-08-19T05:03:26;17.25;;;12.40;;
55720;SDS011;41626;53.098;6.168;2022-08-19T05:05:52;13.43;;;10.35;;
55720;SDS011;41626;53.098;6.168;2022-08-19T05:08:19;13.43;;;12.07;;
55720;SDS011;41626;53.098;6.168;2022-08-19T05:10:47;16.13;;;11.68;;
55720;SDS011;41626;53.098;6.168;2022-08-19T05:13:14;21.63;;;12.07;;
55720;SDS011;41626;53.098;6.168;2022-08-19T05:15:41;15.15;;;11.38;;
55720;SDS011;41626;53.098;6.168;2022-08-19T05:18:07;21.17;;;11.85;;
55720;SDS011;41626;53.098;6.168;2022-08-19T05:20:51;14.10;;;10.70;;
55720;SDS011;41626;53.098;6.168;2022-08-19T05:23:35;13.48;;;10.70;;
55720;SDS011;41626;53.098;6.168;2022-08-19T05:26:01;13.02;;;11.07;;
55720;SDS011;41626;53.098;6.168;2022-08-19T05:28:27;15.50;;;11.30;;
55720;SDS011;41626;53.098;6.168;2022-08-19T05:30:52;14.80;;;11.55;;
55720;SDS011;41626;53.098;6.168;2022-08-19T05:33:20;12.25;;;10.75;;
55720;SDS011;41626;53.098;6.168;2022-08-19T05:35:47;14.93;;;12.98;;
55720;SDS011;41626;53.098;6.168;2022-08-19T05:38:14;18.33;;;12.15;;
55720;SDS011;41626;53.098;6.168;2022-08-19T05:40:41;15.30;;;11.93;;
55720;SDS011;41626;53.098;6.168;2022-08-19T05:43:10;14.10;;;11.52;;
55720;SDS011;41626;53.098;6.168;2022-08-19T05:45:39;15.35;;;12.00;;
55720;SDS011;41626;53.098;6.168;2022-08-19T05:48:07;14.55;;;12.30;;
55720;SDS011;41626;53.098;6.168;2022-08-19T05:50:36;14.07;;;12.15;;
55720;SDS011;41626;53.098;6.168;2022-08-19T05:53:02;16.95;;;13.10;;
55720;SDS011;41626;53.098;6.168;2022-08-19T05:55:29;17.75;;;13.70;;
55720;SDS011;41626;53.098;6.168;2022-08-19T05:57:54;19.48;;;12.75;;
55720;SDS011;41626;53.098;6.168;2022-08-19T06:00:20;19.52;;;14.65;;
55720;SDS011;41626;53.098;6.168;2022-08-19T06:02:46;17.70;;;13.13;;
55720;SDS011;41626;53.098;6.168;2022-08-19T06:05:11;21.67;;;13.27;;
55720;SDS011;41626;53.098;6.168;2022-08-19T06:07:38;18.38;;;14.20;;
55720;SDS011;41626;53.098;6.168;2022-08-19T06:10:05;16.80;;;13.82;;
55720;SDS011;41626;53.098;6.168;2022-08-19T06:12:33;14.68;;;12.90;;
55720;SDS011;41626;53.098;6.168;2022-08-19T06:15:04;18.38;;;13.32;;
55720;SDS011;41626;53.098;6.168;2022-08-19T06:17:33;17.30;;;12.30;;
55720;SDS011;41626;53.098;6.168;2022-08-19T06:20:00;16.42;;;13.27;;
55720;SDS011;41626;53.098;6.168;2022-08-19T06:22:26;14.80;;;12.55;;
55720;SDS011;41626;53.098;6.168;2022-08-19T06:24:53;18.65;;;13.20;;
55720;SDS011;41626;53.098;6.168;2022-08-19T06:27:20;16.15;;;13.52;;
55720;SDS011;41626;53.098;6.168;2022-08-19T06:29:45;18.77;;;15.07;;
55720;SDS011;41626;53.098;6.168;2022-08-19T06:32:12;14.25;;;12.70;;
55720;SDS011;41626;53.098;6.168;2022-08-19T06:34:41;17.60;;;14.43;;
55720;SDS011;41626;53.098;6.168;2022-08-19T06:37:07;17.15;;;13.52;;
55720;SDS011;41626;53.098;6.168;2022-08-19T06:39:34;19.67;;;13.80;;
55720;SDS011;41626;53.098;6.168;2022-08-19T06:42:04;19.92;;;15.18;;
55720;SDS011;41626;53.098;6.168;2022-08-19T06:44:33;18.65;;;14.63;;
55720;SDS011;41626;53.098;6.168;2022-08-19T06:47:05;17.90;;;14.00;;
55720;SDS011;41626;53.098;6.168;2022-08-19T06:49:32;15.75;;;14.13;;
55720;SDS011;41626;53.098;6.168;2022-08-19T06:51:59;23.17;;;16.13;;
55720;SDS011;41626;53.098;6.168;2022-08-19T06:54:26;17.33;;;14.85;;
55720;SDS011;41626;53.098;6.168;2022-08-19T06:56:54;17.17;;;14.90;;
55720;SDS011;41626;53.098;6.168;2022-08-19T06:59:22;18.92;;;15.70;;
55720;SDS011;41626;53.098;6.168;2022-08-19T07:01:53;17.60;;;15.70;;
55720;SDS011;41626;53.098;6.168;2022-08-19T07:04:21;19.20;;;15.93;;
55720;SDS011;41626;53.098;6.168;2022-08-19T07:06:49;20.35;;;16.10;;
55720;SDS011;41626;53.098;6.168;2022-08-19T07:09:21;17.80;;;15.32;;
55720;SDS011;41626;53.098;6.168;2022-08-19T07:11:48;18.08;;;15.25;;
55720;SDS011;41626;53.098;6.168;2022-08-19T07:14:15;20.20;;;14.95;;
55720;SDS011;41626;53.098;6.168;2022-08-19T07:16:44;16.05;;;13.70;;
55720;SDS011;41626;53.098;6.168;2022-08-19T07:19:10;15.68;;;14.07;;
55720;SDS011;41626;53.098;6.168;2022-08-19T07:21:36;17.10;;;15.48;;
55720;SDS011;41626;53.098;6.168;2022-08-19T07:24:02;14.02;;;12.60;;
55720;SDS011;41626;53.098;6.168;2022-08-19T07:26:30;16.67;;;13.38;;
55720;SDS011;41626;53.098;6.168;2022-08-19T07:28:58;16.83;;;12.93;;
55720;SDS011;41626;53.098;6.168;2022-08-19T07:31:26;17.15;;;14.13;;
55720;SDS011;41626;53.098;6.168;2022-08-19T07:33:54;17.23;;;12.45;;
55720;SDS011;41626;53.098;6.168;2022-08-19T07:36:24;15.40;;;13.65;;
55720;SDS011;41626;53.098;6.168;2022-08-19T07:38:57;14.55;;;12.43;;
55720;SDS011;41626;53.098;6.168;2022-08-19T07:41:26;13.95;;;12.63;;
55720;SDS011;41626;53.098;6.168;2022-08-19T07:43:54;14.93;;;11.63;;
55720;SDS011;41626;53.098;6.168;2022-08-19T07:46:20;13.20;;;11.80;;
55720;SDS011;41626;53.098;6.168;2022-08-19T07:48:48;12.10;;;10.82;;
55720;SDS011;41626;53.098;6.168;2022-08-19T07:51:16;13.20;;;12.00;;
55720;SDS011;41626;53.098;6.168;2022-08-19T07:53:43;14.23;;;12.82;;
55720;SDS011;41626;53.098;6.168;2022-08-19T07:56:10;13.27;;;11.60;;
55720;SDS011;41626;53.098;6.168;2022-08-19T07:58:39;12.35;;;11.00;;
55720;SDS011;41626;53.098;6.168;2022-08-19T08:01:07;14.37;;;12.90;;
55720;SDS011;41626;53.098;6.168;2022-08-19T08:03:36;13.75;;;12.27;;
55720;SDS011;41626;53.098;6.168;2022-08-19T08:06:21;14.25;;;12.70;;
55720;SDS011;41626;53.098;6.168;2022-08-19T08:09:05;16.10;;;13.30;;
55720;SDS011;41626;53.098;6.168;2022-08-19T08:11:53;13.98;;;12.57;;
55720;SDS011;41626;53.098;6.168;2022-08-19T08:14:23;15.52;;;13.57;;
55720;SDS011;41626;53.098;6.168;2022-08-19T08:17:00;15.60;;;14.10;;
55720;SDS011;41626;53.098;6.168;2022-08-19T08:19:26;14.98;;;13.40;;
55720;SDS011;41626;53.098;6.168;2022-08-19T08:21:54;16.42;;;13.65;;
55720;SDS011;41626;53.098;6.168;2022-08-19T08:24:21;17.50;;;13.35;;
55720;SDS011;41626;53.098;6.168;2022-08-19T08:26:47;18.08;;;13.63;;
55720;SDS011;41626;53.098;6.168;2022-08-19T08:29:13;16.17;;;12.52;;
55720;SDS011;41626;53.098;6.168;2022-08-19T08:31:40;14.07;;;12.57;;
55720;SDS011;41626;53.098;6.168;2022-08-19T08:34:09;14.45;;;12.98;;
55720;SDS011;41626;53.098;6.168;2022-08-19T08:36:36;14.93;;;13.07;;
55720;SDS011;41626;53.098;6.168;2022-08-19T08:39:06;16.05;;;14.05;;
55720;SDS011;41626;53.098;6.168;2022-08-19T08:44:19;14.25;;;12.85;;
55720;SDS011;41626;53.098;6.168;2022-08-19T08:46:49;16.92;;;13.02;;
55720;SDS011;41626;53.098;6.168;2022-08-19T08:52:06;13.68;;;12.38;;
55720;SDS011;41626;53.098;6.168;2022-08-19T08:54:54;13.18;;;11.90;;
55720;SDS011;41626;53.098;6.168;2022-08-19T08:57:34;14.65;;;12.60;;
55720;SDS011;41626;53.098;6.168;2022-08-19T09:00:06;14.15;;;12.70;;
55720;SDS011;41626;53.098;6.168;2022-08-19T09:02:35;20.25;;;15.25;;
55720;SDS011;41626;53.098;6.168;2022-08-19T09:05:01;15.15;;;13.75;;
55720;SDS011;41626;53.098;6.168;2022-08-19T09:10:34;15.68;;;14.02;;
55720;SDS011;41626;53.098;6.168;2022-08-19T09:16:06;17.20;;;15.13;;
55720;SDS011;41626;53.098;6.168;2022-08-19T09:18:38;15.70;;;14.10;;
55720;SDS011;41626;53.098;6.168;2022-08-19T09:21:06;17.00;;;15.25;;
55720;SDS011;41626;53.098;6.168;2022-08-19T09:23:33;16.88;;;15.07;;
55720;SDS011;41626;53.098;6.168;2022-08-19T09:26:00;21.90;;;19.60;;
55720;SDS011;41626;53.098;6.168;2022-08-19T09:28:25;19.40;;;17.50;;
55720;SDS011;41626;53.098;6.168;2022-08-19T09:30:52;19.75;;;17.92;;
55720;SDS011;41626;53.098;6.168;2022-08-19T09:33:18;20.70;;;18.05;;
55720;SDS011;41626;53.098;6.168;2022-08-19T09:35:44;19.83;;;17.40;;
55720;SDS011;41626;53.098;6.168;2022-08-19T09:38:11;18.65;;;16.75;;
55720;SDS011;41626;53.098;6.168;2022-08-19T09:40:36;20.92;;;18.83;;
55720;SDS011;41626;53.098;6.168;2022-08-19T09:43:02;17.17;;;15.38;;
55720;SDS011;41626;53.098;6.168;2022-08-19T09:45:28;18.50;;;16.70;;
55720;SDS011;41626;53.098;6.168;2022-08-19T09:47:53;18.65;;;16.77;;
55720;SDS011;41626;53.098;6.168;2022-08-19T09:50:19;18.75;;;16.75;;
55720;SDS011;41626;53.098;6.168;2022-08-19T09:52:46;21.60;;;19.50;;
55720;SDS011;41626;53.098;6.168;2022-08-19T09:55:12;22.00;;;19.77;;
55720;SDS011;41626;53.098;6.168;2022-08-19T09:57:38;20.45;;;18.30;;
55720;SDS011;41626;53.098;6.168;2022-08-19T10:00:05;19.85;;;17.90;;
55720;SDS011;41626;53.098;6.168;2022-08-19T10:02:33;21.88;;;19.52;;
55720;SDS011;41626;53.098;6.168;2022-08-19T10:05:00;19.85;;;17.75;;
55720;SDS011;41626;53.098;6.168;2022-08-19T10:07:44;20.30;;;18.10;;
55720;SDS011;41626;53.098;6.168;2022-08-19T10:10:10;15.80;;;14.20;;
55720;SDS011;41626;53.098;6.168;2022-08-19T10:12:36;15.98;;;14.00;;
55720;SDS011;41626;53.098;6.168;2022-08-19T10:15:02;13.85;;;12.25;;
55720;SDS011;41626;53.098;6.168;2022-08-19T10:17:31;22.60;;;15.52;;
55720;SDS011;41626;53.098;6.168;2022-08-19T10:19:58;20.85;;;16.02;;
55720;SDS011;41626;53.098;6.168;2022-08-19T10:22:24;23.02;;;15.02;;
55720;SDS011;41626;53.098;6.168;2022-08-19T10:24:50;15.93;;;14.43;;
55720;SDS011;41626;53.098;6.168;2022-08-19T10:27:17;16.02;;;12.63;;
55720;SDS011;41626;53.098;6.168;2022-08-19T10:29:42;15.90;;;12.27;;
55720;SDS011;41626;53.098;6.168;2022-08-19T10:32:08;17.17;;;15.38;;
55720;SDS011;41626;53.098;6.168;2022-08-19T10:34:36;17.73;;;15.15;;
55720;SDS011;41626;53.098;6.168;2022-08-19T10:37:03;13.27;;;11.93;;
55720;SDS011;41626;53.098;6.168;2022-08-19T10:42:03;18.92;;;14.55;;
55720;SDS011;41626;53.098;6.168;2022-08-19T10:44:31;20.48;;;13.25;;
55720;SDS011;41626;53.098;6.168;2022-08-19T10:46:58;17.63;;;13.95;;
55720;SDS011;41626;53.098;6.168;2022-08-19T10:49:24;14.63;;;13.15;;
55720;SDS011;41626;53.098;6.168;2022-08-19T10:51:50;13.75;;;12.38;;
55720;SDS011;41626;53.098;6.168;2022-08-19T10:54:35;15.88;;;13.70;;
55720;SDS011;41626;53.098;6.168;2022-08-19T10:57:19;17.13;;;13.98;;
55720;SDS011;41626;53.098;6.168;2022-08-19T10:59:44;18.90;;;14.13;;
55720;SDS011;41626;53.098;6.168;2022-08-19T11:02:10;18.42;;;13.52;;
55720;SDS011;41626;53.098;6.168;2022-08-19T11:04:37;15.65;;;11.80;;
55720;SDS011;41626;53.098;6.168;2022-08-19T11:07:04;10.70;;;9.60;;
55720;SDS011;41626;53.098;6.168;2022-08-19T11:09:31;15.55;;;10.63;;
55720;SDS011;41626;53.098;6.168;2022-08-19T11:12:03;11.93;;;10.82;;
55720;SDS011;41626;53.098;6.168;2022-08-19T11:14:29;17.50;;;13.85;;
55720;SDS011;41626;53.098;6.168;2022-08-19T11:16:57;13.52;;;12.13;;
55720;SDS011;41626;53.098;6.168;2022-08-19T11:19:23;13.63;;;11.88;;
55720;SDS011;41626;53.098;6.168;2022-08-19T11:21:49;11.57;;;9.68;;
55720;SDS011;41626;53.098;6.168;2022-08-19T11:24:18;9.88;;;7.68;;
55720;SDS011;41626;53.098;6.168;2022-08-19T11:26:49;8.65;;;7.68;;
55720;SDS011;41626;53.098;6.168;2022-08-19T11:29:18;10.50;;;8.80;;
55720;SDS011;41626;53.098;6.168;2022-08-19T11:31:46;18.08;;;11.00;;
55720;SDS011;41626;53.098;6.168;2022-08-19T11:34:15;12.55;;;9.65;;
55720;SDS011;41626;53.098;6.168;2022-08-19T11:36:44;12.35;;;9.55;;
55720;SDS011;41626;53.098;6.168;2022-08-19T11:39:12;13.32;;;10.63;;
55720;SDS011;41626;53.098;6.168;2022-08-19T11:41:47;10.98;;;9.70;;
55720;SDS011;41626;53.098;6.168;2022-08-19T11:44:13;12.40;;;10.02;;
55720;SDS011;41626;53.098;6.168;2022-08-19T11:46:39;15.93;;;9.95;;
55720;SDS011;41626;53.098;6.168;2022-08-19T11:49:10;11.38;;;10.02;;
55720;SDS011;41626;53.098;6.168;2022-08-19T11:51:36;15.25;;;11.73;;
55720;SDS011;41626;53.098;6.168;2022-08-19T11:54:04;16.50;;;12.07;;
55720;SDS011;41626;53.098;6.168;2022-08-19T11:56:30;16.77;;;12.75;;
55720;SDS011;41626;53.098;6.168;2022-08-19T11:58:56;12.30;;;11.10;;
55720;SDS011;41626;53.098;6.168;2022-08-19T12:01:22;17.23;;;13.35;;
55720;SDS011;41626;53.098;6.168;2022-08-19T12:03:49;16.65;;;13.90;;
55720;SDS011;41626;53.098;6.168;2022-08-19T12:06:18;14.48;;;12.95;;
55720;SDS011;41626;53.098;6.168;2022-08-19T12:08:50;13.60;;;11.82;;
55720;SDS011;41626;53.098;6.168;2022-08-19T12:11:16;19.23;;;14.07;;
55720;SDS011;41626;53.098;6.168;2022-08-19T12:13:42;17.25;;;14.82;;
55720;SDS011;41626;53.098;6.168;2022-08-19T12:16:15;18.65;;;14.57;;
55720;SDS011;41626;53.098;6.168;2022-08-19T12:18:44;17.27;;;15.48;;
55720;SDS011;41626;53.098;6.168;2022-08-19T12:21:13;18.55;;;15.25;;
55720;SDS011;41626;53.098;6.168;2022-08-19T12:23:41;24.60;;;18.05;;
55720;SDS011;41626;53.098;6.168;2022-08-19T12:26:09;25.95;;;17.27;;
55720;SDS011;41626;53.098;6.168;2022-08-19T12:28:35;20.63;;;16.35;;
55720;SDS011;41626;53.098;6.168;2022-08-19T12:31:01;22.67;;;18.52;;
55720;SDS011;41626;53.098;6.168;2022-08-19T12:33:27;21.95;;;18.63;;
55720;SDS011;41626;53.098;6.168;2022-08-19T12:35:53;23.98;;;19.75;;
55720;SDS011;41626;53.098;6.168;2022-08-19T12:38:20;22.33;;;18.52;;
55720;SDS011;41626;53.098;6.168;2022-08-19T12:40:49;24.70;;;20.00;;
55720;SDS011;41626;53.098;6.168;2022-08-19T12:43:17;22.52;;;16.52;;
55720;SDS011;41626;53.098;6.168;2022-08-19T12:45:44;18.00;;;12.15;;
55720;SDS011;41626;53.098;6.168;2022-08-19T12:48:11;18.05;;;14.32;;
55720;SDS011;41626;53.098;6.168;2022-08-19T12:50:40;23.27;;;17.15;;
55720;SDS011;41626;53.098;6.168;2022-08-19T12:53:08;21.73;;;16.65;;
55720;SDS011;41626;53.098;6.168;2022-08-19T12:55:34;19.73;;;14.68;;
55720;SDS011;41626;53.098;6.168;2022-08-19T12:57:59;17.58;;;13.77;;
55720;SDS011;41626;53.098;6.168;2022-08-19T13:00:28;18.42;;;13.52;;
55720;SDS011;41626;53.098;6.168;2022-08-19T13:02:55;18.20;;;13.93;;
55720;SDS011;41626;53.098;6.168;2022-08-19T13:05:23;20.40;;;13.27;;
55720;SDS011;41626;53.098;6.168;2022-08-19T13:07:51;14.98;;;11.93;;
55720;SDS011;41626;53.098;6.168;2022-08-19T13:10:21;25.05;;;13.95;;
55720;SDS011;41626;53.098;6.168;2022-08-19T13:12:50;14.97;;;11.83;;
55720;SDS011;41626;53.098;6.168;2022-08-19T13:15:20;22.70;;;16.45;;
55720;SDS011;41626;53.098;6.168;2022-08-19T13:17:48;23.48;;;17.25;;
55720;SDS011;41626;53.098;6.168;2022-08-19T13:20:16;20.50;;;14.57;;
55720;SDS011;41626;53.098;6.168;2022-08-19T13:22:46;15.15;;;12.88;;
55720;SDS011;41626;53.098;6.168;2022-08-19T13:25:17;18.70;;;12.70;;
55720;SDS011;41626;53.098;6.168;2022-08-19T13:27:48;15.27;;;12.32;;
55720;SDS011;41626;53.098;6.168;2022-08-19T13:30:15;13.63;;;12.15;;
55720;SDS011;41626;53.098;6.168;2022-08-19T13:33:01;18.48;;;12.10;;
55720;SDS011;41626;53.098;6.168;2022-08-19T13:35:37;21.27;;;13.43;;
55720;SDS011;41626;53.098;6.168;2022-08-19T13:38:09;15.63;;;12.93;;
55720;SDS011;41626;53.098;6.168;2022-08-19T13:40:36;19.40;;;16.35;;
55720;SDS011;41626;53.098;6.168;2022-08-19T13:43:03;20.55;;;15.43;;
55720;SDS011;41626;53.098;6.168;2022-08-19T13:45:30;26.67;;;18.83;;
55720;SDS011;41626;53.098;6.168;2022-08-19T13:48:01;18.75;;;12.23;;
55720;SDS011;41626;53.098;6.168;2022-08-19T13:50:33;11.93;;;8.52;;
55720;SDS011;41626;53.098;6.168;2022-08-19T13:53:02;12.20;;;9.68;;
55720;SDS011;41626;53.098;6.168;2022-08-19T13:55:29;11.23;;;9.52;;
55720;SDS011;41626;53.098;6.168;2022-08-19T13:57:56;11.40;;;7.72;;
55720;SDS011;41626;53.098;6.168;2022-08-19T14:00:24;11.25;;;8.50;;
55720;SDS011;41626;53.098;6.168;2022-08-19T14:02:52;12.60;;;10.18;;
55720;SDS011;41626;53.098;6.168;2022-08-19T14:05:20;14.35;;;9.52;;
55720;SDS011;41626;53.098;6.168;2022-08-19T14:07:46;13.50;;;8.75;;
55720;SDS011;41626;53.098;6.168;2022-08-19T14:10:13;9.30;;;8.38;;
55720;SDS011;41626;53.098;6.168;2022-08-19T14:12:40;7.30;;;6.15;;
55720;SDS011;41626;53.098;6.168;2022-08-19T14:15:07;11.40;;;7.10;;
55720;SDS011;41626;53.098;6.168;2022-08-19T14:17:34;7.20;;;5.25;;
55720;SDS011;41626;53.098;6.168;2022-08-19T14:20:03;7.35;;;6.10;;
55720;SDS011;41626;53.098;6.168;2022-08-19T14:22:37;4.93;;;4.43;;
55720;SDS011;41626;53.098;6.168;2022-08-19T14:25:06;5.63;;;4.68;;
55720;SDS011;41626;53.098;6.168;2022-08-19T14:27:37;8.20;;;5.30;;
55720;SDS011;41626;53.098;6.168;2022-08-19T14:30:05;8.10;;;4.50;;
55720;SDS011;41626;53.098;6.168;2022-08-19T14:32:32;11.20;;;6.00;;
55720;SDS011;41626;53.098;6.168;2022-08-19T14:34:59;4.68;;;4.20;;
55720;SDS011;41626;53.098;6.168;2022-08-19T14:37:25;9.57;;;6.55;;
55720;SDS011;41626;53.098;6.168;2022-08-19T14:39:50;6.72;;;5.57;;
55720;SDS011;41626;53.098;6.168;2022-08-19T14:42:16;6.50;;;4.95;;
55720;SDS011;41626;53.098;6.168;2022-08-19T14:44:42;6.82;;;6.03;;
55720;SDS011;41626;53.098;6.168;2022-08-19T14:47:08;7.00;;;6.30;;
55720;SDS011;41626;53.098;6.168;2022-08-19T14:49:35;8.98;;;6.35;;
55720;SDS011;41626;53.098;6.168;2022-08-19T14:52:01;7.90;;;6.57;;
55720;SDS011;41626;53.098;6.168;2022-08-19T14:54:28;8.25;;;6.82;;